Sedalia Memorial, MO

2:31 PM CDT on July 22, 2014 (GMT -0500)
Skyhaven (KRCM) Elev 797 ft | 38.78 °N, 93.80 °W | Change Station
Active Advisory: Heat Advisory

Current weather conditions updated 16 minutes ago

Clear
Clear
90 °F
Feels Like 100 °F
N
7
Wind Variable Wind from SW

Today is forecast to be Warmer than yesterday.

Today
High -- | Low -- °F
--% Chance of Precip.
Yesterday
High -- | Low -- °F
Precip. -- in
6:05 AM 8:32 PM
Waning Crescent, 15% visible
Pressure 30.02 in
Visibility 10.0 miles
Clouds Clear
Heat Index 100 °F
Dew Point 75 °F
Humidity 62%
Rainfall 0.00 in
Snow Depth Not available.
UV 11 out of 12
Pollen 5.70 out of 12
Air Quality Not available.
Flu Activity Sporadic
METAR KRCM 221915Z AUTO 22006KT 10SM CLR 32/24 A3002 RMK AO2

More Conditions Fewer Conditions

Pressure 30.02 in
Visibility 10.0 miles
Clouds Clear
Heat Index 100 °F
Dew Point 75 °F
Humidity 62%
Rainfall 0.00 in
Snow Depth Not available.
UV 11 out of 12
Pollen 5.70 out of 12
Air Quality Not available.
Flu Activity Sporadic
METAR KRCM 221915Z AUTO 22006KT 10SM CLR 32/24 A3002 RMK AO2

More Conditions Fewer Conditions

10-Day Weather Forecast

Almanac

Astronomy

Jul. 22, 2014 Rise Set
Actual Time 6:05 AM CDT 8:32 PM CDT
Civil Twilight 5:35 AM CDT 9:02 PM CDT
Nautical Twilight 4:57 AM CDT 9:40 PM CDT
Astronomical Twilight 4:15 AM CDT 10:21 PM CDT
Moon 2:38 AM CDT 5:10 PM CDT
Length of Visible Light 15h 27m
Length of Day
14h 26m
Tomorrow will be 1m 35s shorter.
Waning Crescent, 15% of the Moon is Illuminated
Today
Waning Crescent
Jul 26
New
Aug 3
First Quarter
Aug 10
Full
Aug 17
Last Quarter

Today's Extremes

State Highs State Lows

Community

WunderPhotos

Upload Photos

1,736,341 photos uploaded!

Nearby

Snow Depth

Station Depth Elevation
No new snow has been reported.

Earthquake Activity

City Distance Mag. Time & Date
No recent earthquake activity has been reported nearby.
Minimum magnitude displayed is 2.5.

Coastal Water Temperatures

Place Temperature
No Stations Reporting

Nearby Weather Stations

Station Location Temp. Heat Index Dew Point Humidity Wind Precip. Elev Updated Type
MesoWest SEDLIA , Sedalia, MO 108 °F 99 °F - - North  at  - 0.00 in / hr 823 ft 1:00 PM CDT MADIS
Sedalia, MO 93.6 °F 112 °F 79 °F 64% WSW  at  6.0 mph 0.00 in / hr 837 ft 2:27 PM CDT Rapid Fire
MesoWest OTRVLE , Syracuse, MO 93 °F 89 °F - - North  at  - 0.00 in / hr 849 ft 12:40 PM CDT MADIS
cole camp Lincoln, Cole Camp, MO 88.6 °F 101 °F 77 °F 69% West  at  0.0 mph 0.00 in / hr 905 ft 12:41 PM CDT Normal
Windsor NW, Windsor, MO 89.4 °F 105 °F 79 °F 71% SE  at  0.0 mph 0.00 in / hr 886 ft 2:31 PM CDT Rapid Fire
MesoWest KNBSTR , Knob Noster, MO 88 °F 85 °F - - North  at  - 0.00 in / hr 768 ft 1:20 PM CDT MADIS

Show More Stations Show Fewer Stations